Time;durP1;ratioP1;P1;durP2;ratioP2;P2;SDS_P1;SDS_P2;PMS_P1;PMS_P2;Temp;Humidity;BMP_temperature;BMP_pressure;BME280_temperature;BME280_humidity;BME280_pressure;Samples;Min_cycle;Max_cycle;Signal;HPM_P1;HPM_P2
2021/07/10 00:01:46;;;;;;;;;;;19.90;99.90;;;19.86;69.51;100542.19;5095632;28;19935;-64
2021/07/10 00:04:14;;;;;;;;;;;19.90;99.90;;;20.00;68.55;100538.97;5095559;28;19928;-65
2021/07/10 00:06:41;;;;;;;;;;;20.00;99.90;;;20.04;68.19;100545.31;5095445;28;19928;-66
2021/07/10 00:09:09;;;;;;;;;;;20.00;99.90;;;20.05;67.59;100536.75;5095957;28;19927;-64
2021/07/10 00:11:37;;;;;;;;;;;20.10;99.90;;;20.18;66.87;100523.66;5095655;28;19928;-64
2021/07/10 00:14:07;;;;;;;;;;;20.20;99.90;;;20.27;66.92;100531.72;5095087;28;19978;-63
2021/07/10 00:16:34;;;;;;;;;;;20.30;99.90;;;20.35;66.30;100519.72;5095381;28;19932;-66
2021/07/10 00:19:02;;;;;;;;;;;20.30;99.90;;;20.42;64.98;100528.91;5095692;28;19993;-65
2021/07/10 00:21:30;;;;;;;;;;;20.40;99.90;;;20.46;65.38;100523.44;5095547;28;19977;-65
2021/07/10 00:23:58;;;;;;;;;;;;;;;20.53;64.85;100518.91;5095085;28;20292;-65
2021/07/10 00:26:25;;;;;;;;;;;20.60;99.90;;;20.62;63.96;100516.72;5095272;28;19924;-65
2021/07/10 00:28:53;;;;;;;;;;;20.60;99.90;;;20.69;63.14;100516.06;5095052;28;20286;-65
2021/07/10 00:31:22;;;;;;;;;;;20.70;99.90;;;20.77;62.21;100519.72;5095430;28;20294;-66
2021/07/10 00:33:50;;;;;;;;;;;20.80;99.90;;;20.89;61.42;100519.53;5094789;28;19924;-66
2021/07/10 00:36:18;;;;;;;;;;;21.00;99.90;;;20.99;60.98;100519.75;5095298;28;19928;-64
2021/07/10 00:38:45;;;;;;;;;;;21.00;99.90;;;21.02;61.25;100512.72;5095075;28;19928;-63
2021/07/10 00:41:13;;;;;;;;;;;21.10;99.90;;;20.98;61.40;100518.13;5095119;28;19924;-64
2021/07/10 00:43:41;;;;;;;;;;;21.10;99.90;;;20.82;62.19;100508.44;5094643;28;19920;-66
2021/07/10 00:46:09;;;;;;;;;;;20.90;99.90;;;20.74;62.91;100510.25;5094963;28;20451;-65
2021/07/10 00:48:38;;;;;;;;;;;20.90;99.90;;;20.73;62.79;100510.63;5094766;28;19932;-65
2021/07/10 00:51:05;;;;;;;;;;;20.80;99.90;;;20.65;63.14;100509.69;5094910;28;19928;-65
2021/07/10 00:53:33;;;;;;;;;;;20.70;99.90;;;20.52;63.50;100500.81;5094313;28;19927;-65
2021/07/10 00:56:01;;;;;;;;;;;20.60;99.90;;;20.39;64.38;100502.16;5094760;28;19924;-65
2021/07/10 00:58:29;;;;;;;;;;;20.50;99.90;;;20.35;64.52;100508.72;5094492;28;19931;-65
2021/07/10 01:00:57;;;;;;;;;;;20.40;99.90;;;20.33;64.69;100503.63;5094830;28;19928;-66
2021/07/10 01:03:25;;;;;;;;;;;20.40;99.90;;;20.38;64.04;100505.25;5094135;28;19935;-65
2021/07/10 01:05:54;;;;;;;;;;;20.40;99.90;;;20.44;63.85;100507.34;5094787;28;19981;-65
2021/07/10 01:08:22;;;;;;;;;;;20.50;99.90;;;20.36;64.68;100510.31;5094430;28;19977;-63
2021/07/10 01:10:50;;;;;;;;;;;20.40;99.90;;;20.27;64.52;100488.59;5094637;28;20352;-65
2021/07/10 01:13:18;;;;;;;;;;;20.30;99.90;;;20.31;64.88;100489.44;5093932;28;19928;-63
2021/07/10 01:15:46;;;;;;;;;;;20.40;99.90;;;20.10;65.12;100498.00;5094322;28;19928;-64
2021/07/10 01:18:14;;;;;;;;;;;20.30;99.90;;;19.99;65.45;100488.78;5094064;28;19924;-66
2021/07/10 01:20:47;;;;;;;;;;;20.10;99.90;;;19.85;65.89;100491.19;5094436;28;19932;-65
2021/07/10 01:23:16;;;;;;;;;;;20.00;99.90;;;19.84;65.99;100491.56;5093792;28;19928;-64
2021/07/10 01:25:44;;;;;;;;;;;20.00;99.90;;;19.85;66.32;100491.19;5094367;28;20234;-64
2021/07/10 01:28:13;;;;;;;;;;;19.90;99.90;;;19.94;66.11;100480.81;5093865;28;19927;-64
2021/07/10 01:30:42;;;;;;;;;;;20.00;99.90;;;19.89;66.53;100478.34;5094092;28;20391;-65
2021/07/10 01:33:10;;;;;;;;;;;20.00;99.90;;;19.94;65.90;100480.03;5093511;28;19928;-66
2021/07/10 01:35:38;;;;;;;;;;;20.00;99.90;;;19.98;65.69;100475.41;5094060;28;19924;-67
2021/07/10 01:38:09;;;;;;;;;;;20.00;99.90;;;19.80;66.47;100477.78;5093671;28;19978;-65
2021/07/10 01:40:37;;;;;;;;;;;19.90;99.90;;;19.72;67.08;100472.50;5094076;28;19924;-66
2021/07/10 01:43:05;;;;;;;;;;;19.80;99.90;;;19.66;66.79;100466.50;5093471;28;19973;-65
2021/07/10 01:45:33;;;;;;;;;;;19.80;99.90;;;19.58;67.07;100465.53;5093795;28;19995;-65
2021/07/10 01:48:01;;;;;;;;;;;19.70;99.90;;;19.51;67.06;100472.84;5093557;28;19928;-64
2021/07/10 01:50:29;;;;;;;;;;;19.60;99.90;;;19.52;67.25;100480.69;5093890;28;19940;-63
2021/07/10 01:52:57;;;;;;;;;;;19.60;99.90;;;19.39;67.70;100481.97;5093289;28;19924;-64
2021/07/10 01:55:28;;;;;;;;;;;19.50;99.90;;;19.32;68.72;100487.25;5093721;28;19931;-64
2021/07/10 01:57:56;;;;;;;;;;;19.50;99.90;;;19.45;68.51;100479.75;5093190;28;19924;-65
2021/07/10 02:00:27;;;;;;;;;;;19.50;99.90;;;19.71;66.38;100481.88;5093516;28;19976;-63
2021/07/10 02:02:55;;;;;;;;;;;19.70;99.90;;;19.90;65.07;100481.91;5093061;28;19924;-65
2021/07/10 02:05:23;;;;;;;;;;;19.90;99.90;;;19.98;64.75;100480.88;5093665;28;19930;-65
2021/07/10 02:08:40;;;;;;;;;;;20.00;99.90;;;19.98;65.26;100481.69;5093018;28;19977;-63
2021/07/10 02:11:10;;;;;;;;;;;20.00;99.90;;;19.85;65.11;100488.47;5092805;28;19928;-64
2021/07/10 02:13:37;;;;;;;;;;;20.00;99.90;;;19.73;65.77;100487.81;5092775;28;19923;-66
2021/07/10 02:16:05;;;;;;;;;;;19.80;99.90;;;19.78;64.29;100488.31;5093198;28;20365;-65
2021/07/10 02:18:33;;;;;;;;;;;19.80;99.90;;;20.11;63.46;100487.84;5093169;28;19924;-65
2021/07/10 02:21:01;;;;;;;;;;;20.10;99.90;;;19.94;63.46;100485.53;5093227;28;19978;-65
2021/07/10 02:23:28;;;;;;;;;;;20.00;99.90;;;19.95;63.94;100481.59;5092815;28;19928;-65
2021/07/10 02:25:56;;;;;;;;;;;20.00;99.90;;;19.93;63.34;100475.69;5093154;28;20355;-65
2021/07/10 02:28:25;;;;;;;;;;;20.00;99.90;;;19.85;63.53;100479.47;5092858;28;19970;-65
2021/07/10 02:30:53;;;;;;;;;;;20.00;99.90;;;19.74;64.00;100479.22;5092984;28;19971;-66
2021/07/10 02:33:21;;;;;;;;;;;19.90;99.90;;;19.62;64.94;100485.63;5092706;28;19928;-63
2021/07/10 02:35:49;;;;;;;;;;;19.80;99.90;;;19.56;64.60;100489.81;5092869;28;19924;-66
2021/07/10 02:38:17;;;;;;;;;;;19.70;99.90;;;19.60;65.07;100479.72;5092753;28;19925;-66
2021/07/10 02:40:45;;;;;;;;;;;19.70;99.90;;;19.61;65.43;100491.44;5092981;28;19924;-65
2021/07/10 02:43:12;;;;;;;;;;;19.70;99.90;;;19.57;66.10;100485.91;5092432;28;19955;-66
2021/07/10 02:45:41;;;;;;;;;;;19.70;99.90;;;19.49;65.97;100486.88;5093166;28;19938;-66
2021/07/10 02:48:10;;;;;;;;;;;19.60;99.90;;;19.43;66.10;100493.00;5092548;28;20022;-65
2021/07/10 02:50:38;;;;;;;;;;;19.50;99.90;;;19.41;66.48;100498.84;5092685;28;19963;-63
2021/07/10 02:53:05;;;;;;;;;;;19.50;99.90;;;19.33;66.72;100485.31;5092352;28;19970;-65
2021/07/10 02:55:34;;;;;;;;;;;19.40;99.90;;;19.24;66.97;100501.91;5092972;28;19924;-64
2021/07/10 02:58:02;;;;;;;;;;;19.30;99.90;;;19.15;67.38;100497.81;5092576;28;19936;-65
2021/07/10 03:00:32;;;;;;;;;;;19.20;99.90;;;19.00;67.91;100497.44;5092754;28;19977;-65
2021/07/10 03:03:01;;;;;;;;;;;19.20;99.90;;;18.80;68.45;100497.69;5092002;28;19989;-65
2021/07/10 03:05:31;;;;;;;;;;;19.00;99.90;;;18.86;68.36;100488.06;5092690;28;20343;-65
2021/07/10 03:07:59;;;;;;;;;;;19.00;99.90;;;18.87;68.32;100492.41;5092348;28;19947;-66
2021/07/10 03:10:28;;;;;;;;;;;19.00;99.90;;;18.80;69.08;100487.53;5092897;28;19977;-65
2021/07/10 03:12:56;;;;;;;;;;;19.00;99.90;;;18.69;69.40;100489.22;5091951;28;20015;-66
2021/07/10 03:15:25;;;;;;;;;;;18.90;99.90;;;18.62;69.62;100480.81;5092274;28;20403;-66
2021/07/10 03:17:53;;;;;;;;;;;18.80;99.90;;;18.59;69.76;100481.50;5092066;28;19971;-66
2021/07/10 03:20:25;;;;;;;;;;;18.80;99.90;;;18.58;69.33;100470.88;5092715;28;19977;-65
2021/07/10 03:22:54;;;;;;;;;;;18.70;99.90;;;18.56;69.32;100471.25;5094192;28;19993;-65
2021/07/10 03:25:22;;;;;;;;;;;18.70;99.90;;;18.52;69.34;100468.41;5096846;28;19997;-65
2021/07/10 03:27:50;;;;;;;;;;;18.70;99.90;;;18.58;68.75;100473.63;5096043;28;19932;-65
2021/07/10 03:30:20;;;;;;;;;;;18.70;99.90;;;18.62;68.61;100475.31;5096782;28;19928;-65
2021/07/10 03:32:48;;;;;;;;;;;18.80;99.90;;;18.64;68.15;100474.97;5095792;28;19927;-65
2021/07/10 03:35:17;;;;;;;;;;;18.80;99.90;;;18.69;67.45;100471.97;5096603;28;20369;-65
2021/07/10 03:37:46;;;;;;;;;;;18.90;99.90;;;18.88;66.61;100469.31;5096182;28;19969;-65
2021/07/10 03:40:18;;;;;;;;;;;19.10;99.90;;;18.99;65.57;100473.13;5096432;28;19931;-65
2021/07/10 03:42:46;;;;;;;;;;;19.20;99.90;;;19.12;64.90;100460.13;5095710;28;19924;-65
2021/07/10 03:45:14;;;;;;;;;;;19.30;99.90;;;19.20;64.44;100457.19;5096457;28;19970;-66
2021/07/10 03:47:42;;;;;;;;;;;19.40;99.90;;;19.28;63.76;100450.72;5095825;28;19928;-66
2021/07/10 03:50:12;;;;;;;;;;;19.50;99.90;;;19.51;62.33;100446.22;5096411;28;19950;-66
2021/07/10 03:52:40;;;;;;;;;;;19.70;99.90;;;19.73;61.42;100439.22;5095286;28;20001;-65
2021/07/10 03:55:11;;;;;;;;;;;19.90;99.90;;;19.85;60.99;100441.03;5096086;28;19928;-66
2021/07/10 03:57:39;;;;;;;;;;;20.00;99.90;;;19.76;61.27;100434.97;5096002;28;20022;-65
2021/07/10 04:00:10;;;;;;;;;;;20.00;99.90;;;19.55;61.69;100447.06;5096313;28;19924;-65
2021/07/10 04:02:37;;;;;;;;;;;19.90;99.90;;;19.41;62.01;100457.72;5094873;28;19985;-65
2021/07/10 04:05:07;;;;;;;;;;;19.70;99.90;;;19.35;62.49;100456.38;5096055;28;19978;-65
2021/07/10 04:07:35;;;;;;;;;;;19.70;99.90;;;19.37;62.13;100458.75;5095420;28;19924;-65
2021/07/10 04:10:04;;;;;;;;;;;19.60;99.90;;;19.35;62.00;100456.38;5096141;28;19947;-65
2021/07/10 04:12:33;;;;;;;;;;;19.60;99.90;;;19.37;61.88;100462.28;5095140;28;20287;-65
2021/07/10 04:15:01;;;;;;;;;;;19.60;99.90;;;19.31;62.37;100451.94;5095171;28;19928;-65
2021/07/10 04:17:30;;;;;;;;;;;19.60;99.90;;;19.14;63.18;100458.63;5093988;28;19993;-65
2021/07/10 04:19:58;;;;;;;;;;;19.50;99.90;;;18.98;63.82;100466.06;5094523;28;19932;-64
2021/07/10 04:22:26;;;;;;;;;;;19.40;99.90;;;18.99;64.02;100465.72;5093511;28;20419;-65
2021/07/10 04:24:54;;;;;;;;;;;19.30;99.90;;;19.08;63.32;100465.53;5094464;28;19978;-65
2021/07/10 04:27:22;;;;;;;;;;;19.40;99.90;;;19.06;63.27;100449.44;5093843;28;19931;-64
2021/07/10 04:29:51;;;;;;;;;;;19.40;99.90;;;19.19;63.03;100449.31;5094423;28;20427;-65
2021/07/10 04:32:19;;;;;;;;;;;19.40;99.90;;;19.15;64.56;100443.75;5093527;28;19977;-65
2021/07/10 04:34:46;;;;;;;;;;;19.30;99.90;;;18.98;65.36;100444.13;5093676;28;20327;-65
2021/07/10 04:37:14;;;;;;;;;;;19.20;99.90;;;18.71;65.81;100447.75;5093971;28;19973;-65
2021/07/10 04:39:42;;;;;;;;;;;18.90;99.90;;;18.72;64.22;100438.41;5094068;28;20027;-65
2021/07/10 04:42:10;;;;;;;;;;;18.80;99.90;;;18.85;63.21;100418.78;5093292;28;19982;-65
2021/07/10 04:44:37;;;;;;;;;;;19.00;99.90;;;18.96;63.13;100413.56;5094058;28;19977;-65
2021/07/10 04:47:07;;;;;;;;;;;19.10;99.90;;;19.01;63.15;100410.53;5093790;28;19947;-65
2021/07/10 04:49:34;;;;;;;;;;;19.10;99.90;;;19.01;62.73;100397.66;5093955;28;19924;-65
2021/07/10 04:52:02;;;;;;;;;;;19.10;99.90;;;19.08;61.54;100400.56;5093404;28;19924;-65
2021/07/10 04:54:30;;;;;;;;;;;19.20;99.90;;;19.29;59.82;100405.72;5093765;28;19928;-65
2021/07/10 04:56:58;;;;;;;;;;;19.40;99.90;;;19.48;58.64;100405.00;5093711;28;20262;-65
2021/07/10 04:59:26;;;;;;;;;;;19.50;99.90;;;19.63;57.28;100404.94;5093724;28;19924;-65
2021/07/10 05:01:53;;;;;;;;;;;19.60;99.90;;;19.74;56.76;100426.28;5093398;28;20358;-65
2021/07/10 05:04:22;;;;;;;;;;;19.80;99.90;;;19.86;55.61;100413.22;5093357;28;20369;-65
2021/07/10 05:06:50;;;;;;;;;;;19.90;99.90;;;19.97;54.54;100419.72;5093574;28;19973;-65
2021/07/10 05:09:19;;;;;;;;;;;20.00;99.90;;;20.10;53.84;100412.13;5093604;28;19924;-66
2021/07/10 05:11:47;;;;;;;;;;;20.10;99.90;;;20.18;53.01;100409.13;5093418;28;20026;-65
2021/07/10 05:14:16;;;;;;;;;;;20.30;99.90;;;20.23;52.91;100419.03;5013147;28;2257799;-65
2021/07/10 05:16:44;;;;;;;;;;;20.30;99.90;;;20.23;52.76;100419.03;5094184;28;20300;-64
2021/07/10 05:19:12;;;;;;;;;;;20.30;99.90;;;20.18;53.00;100422.88;5094400;28;19928;-65
2021/07/10 05:21:41;;;;;;;;;;;20.30;99.90;;;20.14;53.54;100433.00;5094249;28;20433;-65
2021/07/10 05:24:09;;;;;;;;;;;20.20;99.90;;;20.12;53.09;100437.28;5093994;28;20930;-65
2021/07/10 05:26:37;;;;;;;;;;;20.20;99.90;;;20.17;53.05;100446.00;5094208;28;20041;-65
2021/07/10 05:29:05;;;;;;;;;;;20.30;99.90;;;20.18;53.39;100452.28;5093972;28;19928;-65
2021/07/10 05:31:33;;;;;;;;;;;20.30;99.90;;;20.10;53.24;100458.78;5094157;28;19924;-65
2021/07/10 05:34:01;;;;;;;;;;;20.20;99.90;;;20.03;53.06;100459.44;5093646;28;20430;-65
2021/07/10 05:36:29;;;;;;;;;;;20.10;99.90;;;20.02;53.62;100457.06;5094105;28;19931;-64
2021/07/10 05:38:58;;;;;;;;;;;20.10;99.90;;;20.06;52.40;100455.97;5093843;28;19924;-65
2021/07/10 05:41:26;;;;;;;;;;;20.30;99.90;;;20.28;51.93;100448.97;5093731;28;20387;-65
2021/07/10 05:43:53;;;;;;;;;;;20.30;99.90;;;20.50;51.79;100439.19;5093402;28;19928;-65
2021/07/10 05:46:21;;;;;;;;;;;20.70;99.90;;;20.68;51.16;100448.53;5093544;28;19928;-66
2021/07/10 05:48:49;;;;;;;;;;;20.80;99.90;;;20.80;50.83;100448.34;5093722;28;19924;-65
2021/07/10 05:51:17;;;;;;;;;;;20.90;99.90;;;20.97;50.74;100445.09;5093640;28;20409;-65
2021/07/10 05:53:44;;;;;;;;;;;21.10;99.90;;;21.14;50.48;100439.13;5093172;28;19924;-65
2021/07/10 05:56:13;;;;;;;;;;;21.20;99.90;;;21.35;50.03;100427.63;5093906;28;19977;-65
2021/07/10 05:58:41;;;;;;;;;;;21.40;99.90;;;21.47;50.16;100410.09;5093486;28;19997;-65
2021/07/10 06:01:09;;;;;;;;;;;21.50;99.90;;;21.38;50.82;100401.34;5093819;28;19947;-65
2021/07/10 06:03:36;;;;;;;;;;;21.50;99.90;;;21.28;50.64;100391.75;5093112;28;19973;-65
2021/07/10 06:06:04;;;;;;;;;;;21.40;99.90;;;21.47;50.35;100377.09;5093606;28;20506;-65
2021/07/10 06:08:32;;;;;;;;;;;21.70;99.90;;;21.84;49.58;100388.16;5093266;28;19928;-65
2021/07/10 06:11:00;;;;;;;;;;;21.80;99.90;;;21.87;49.25;100396.47;5093573;28;20052;-65
2021/07/10 06:13:29;;;;;;;;;;;22.00;99.90;;;22.00;48.72;100416.31;5092870;28;19924;-64
2021/07/10 06:15:57;;;;;;;;;;;22.30;99.90;;;22.49;47.63;100438.06;5093210;28;20304;-65
2021/07/10 06:18:24;;;;;;;;;;;22.70;99.90;;;22.88;46.26;100447.53;5093414;28;19931;-65
2021/07/10 06:20:53;;;;;;;;;;;23.10;99.90;;;23.10;45.51;100448.47;5093317;28;20351;-65
2021/07/10 06:23:21;;;;;;;;;;;23.90;99.90;;;23.67;44.53;100436.66;5092701;28;19928;-65
2021/07/10 06:25:49;;;;;;;;;;;23.90;99.90;;;24.35;42.73;100419.13;5093247;28;19924;-66
2021/07/10 06:28:16;;;;;;;;;;;24.40;99.90;;;24.98;41.26;100418.41;5093166;28;20346;-66
2021/07/10 06:30:46;;;;;;;;;;;25.00;99.90;;;25.42;40.25;100419.91;5093337;28;19927;-65
2021/07/10 06:33:13;;;;;;;;;;;25.40;99.90;;;25.45;40.75;100417.13;5092538;28;19924;-66
2021/07/10 06:35:41;;;;;;;;;;;25.80;99.90;;;25.26;40.19;100422.34;5092939;28;19928;-65
2021/07/10 06:38:09;;;;;;;;;;;25.90;99.90;;;25.23;41.14;100431.44;5092710;28;19978;-65
2021/07/10 06:40:37;;;;;;;;;;;25.90;99.90;;;25.28;40.18;100447.63;5093143;28;20296;-65
2021/07/10 06:43:04;;;;;;;;;;;26.00;99.90;;;25.42;40.55;100440.06;5092425;28;19931;-66
2021/07/10 06:45:32;;;;;;;;;;;26.10;99.90;;;25.49;40.16;100436.53;5092853;28;19928;-65
2021/07/10 06:48:02;;;;;;;;;;;26.20;99.90;;;25.66;40.57;100419.06;5092261;28;19924;-65
2021/07/10 06:50:30;;;;;;;;;;;26.40;99.90;;;26.14;39.37;100415.69;5093039;28;19968;-65
2021/07/10 06:52:58;;;;;;;;;;;26.60;99.90;;;26.25;38.34;100424.75;5092162;28;20357;-65
2021/07/10 06:55:26;;;;;;;;;;;26.80;99.90;;;25.84;39.58;100419.78;5092750;28;19924;-65
2021/07/10 06:57:53;;;;;;;;;;;26.70;99.90;;;25.12;40.72;100433.41;5092247;28;19924;-65
2021/07/10 07:00:21;;;;;;;;;;;26.10;99.90;;;25.17;41.13;100439.31;5092879;28;20311;-66
2021/07/10 07:02:49;;;;;;;;;;;26.10;99.90;;;25.56;40.48;100419.13;5092082;28;19928;-66
2021/07/10 07:05:18;;;;;;;;;;;26.50;99.90;;;25.93;39.07;100392.44;5092714;28;20393;-66
2021/07/10 07:07:47;;;;;;;;;;;27.10;99.90;;;26.37;39.13;100374.38;5092300;28;19934;-66
2021/07/10 07:10:15;;;;;;;;;;;27.20;99.90;;;26.12;39.24;100387.59;5092934;28;20400;-65
2021/07/10 07:12:44;;;;;;;;;;;27.10;99.90;;;25.77;39.90;100399.66;5092079;28;20304;-66
2021/07/10 07:15:13;;;;;;;;;;;26.70;99.90;;;25.69;40.47;100398.88;5092344;28;19924;-63
2021/07/10 07:17:40;;;;;;;;;;;26.60;99.90;;;25.86;40.42;100395.25;5092338;28;19954;-66
2021/07/10 07:20:13;;;;;;;;;;;26.70;99.90;;;25.89;39.49;100383.38;5092739;28;19928;-66
2021/07/10 07:22:44;;;;;;;;;;;26.40;99.90;;;25.61;40.67;100393.78;5092022;28;20305;-65
2021/07/10 07:25:12;;;;;;;;;;;26.30;99.90;;;25.80;42.10;100402.41;5092499;28;19981;-65
2021/07/10 07:27:40;;;;;;;;;;;26.50;99.90;;;26.14;40.51;100396.31;5092300;28;19932;-65
2021/07/10 07:30:08;;;;;;;;;;;26.60;99.90;;;26.41;40.40;100402.88;5092625;28;19927;-65
2021/07/10 07:32:36;;;;;;;;;;;26.90;99.90;;;26.54;40.56;100413.06;5092030;28;19928;-66
2021/07/10 07:35:06;;;;;;;;;;;27.10;99.90;;;26.76;39.88;100422.00;5092292;28;19928;-65
2021/07/10 07:37:34;;;;;;;;;;;27.40;99.90;;;26.91;39.73;100414.38;5092206;28;19928;-65
2021/07/10 07:40:04;;;;;;;;;;;27.50;99.90;;;27.04;40.04;100402.38;5092365;28;20424;-65
2021/07/10 07:42:32;;;;;;;;;;;27.70;99.90;;;27.31;38.84;100404.47;5092330;28;19928;-66
2021/07/10 07:44:59;;;;;;;;;;;27.80;99.90;;;27.17;38.34;100391.56;5092421;28;19931;-65
2021/07/10 07:47:27;;;;;;;;;;;27.80;99.90;;;27.08;37.99;100392.00;5091988;28;19928;-65
2021/07/10 07:49:55;;;;;;;;;;;27.70;99.90;;;27.09;38.13;100374.16;5092406;28;19978;-65
2021/07/10 07:52:22;;;;;;;;;;;27.70;99.90;;;27.12;37.67;100365.03;5091631;28;20332;-66
2021/07/10 07:54:50;;;;;;;;;;;27.70;99.90;;;27.19;37.09;100363.38;5092282;28;19981;-65
2021/07/10 07:57:19;;;;;;;;;;;27.80;99.90;;;27.57;37.04;100395.50;5091756;28;19924;-65
2021/07/10 07:59:47;;;;;;;;;;;28.00;99.90;;;27.89;39.40;100425.66;5092379;28;19925;-66
2021/07/10 08:02:15;;;;;;;;;;;28.40;99.90;;;28.03;39.45;100428.22;5091674;28;19928;-65
2021/07/10 08:04:42;;;;;;;;;;;28.60;99.90;;;28.04;37.78;100402.03;5092177;28;19928;-66
2021/07/10 08:07:10;;;;;;;;;;;28.70;99.90;;;27.96;36.17;100386.66;5091854;28;19931;-65
2021/07/10 08:09:38;;;;;;;;;;;28.60;99.90;;;28.13;36.15;100377.31;5095295;28;19924;-65
2021/07/10 08:12:07;;;;;;;;;;;28.70;99.90;;;28.18;35.84;100374.03;5095190;28;19928;-65
2021/07/10 08:14:36;;;;;;;;;;;28.70;99.90;;;28.18;35.52;100390.72;5095929;28;20023;-65
2021/07/10 08:17:05;;;;;;;;;;;28.70;99.90;;;28.31;36.72;100388.16;5095385;28;20201;-65
2021/07/10 08:19:32;;;;;;;;;;;28.80;99.90;;;28.68;34.29;100388.00;5095686;28;19924;-65
2021/07/10 08:22:00;;;;;;;;;;;29.10;99.90;;;29.03;36.33;100401.28;5095107;28;19939;-64
2021/07/10 08:24:28;;;;;;;;;;;29.30;99.90;;;29.39;34.03;100395.91;5095510;28;19928;-65
2021/07/10 08:26:55;;;;;;;;;;;29.70;99.90;;;29.37;34.65;100406.66;5095440;28;19928;-66
2021/07/10 08:29:24;;;;;;;;;;;29.90;99.90;;;29.41;33.72;100409.38;5095311;28;19942;-65
2021/07/10 08:31:54;;;;;;;;;;;30.00;99.30;;;29.54;34.34;100413.09;5095011;28;20365;-64
2021/07/10 08:34:21;;;;;;;;;;;30.10;99.70;;;29.73;33.31;100415.88;5095039;28;19931;-65
2021/07/10 08:36:49;;;;;;;;;;;30.30;99.20;;;29.58;33.34;100422.94;5095172;28;19924;-65
2021/07/10 08:39:17;;;;;;;;;;;30.20;99.00;;;29.49;33.20;100425.50;5095209;28;19924;-65
2021/07/10 08:41:48;;;;;;;;;;;30.10;99.00;;;29.62;33.57;100418.09;5094957;28;20420;-65
2021/07/10 08:44:16;;;;;;;;;;;30.20;99.10;;;29.57;34.14;100409.47;5094985;28;19928;-65
2021/07/10 08:46:44;;;;;;;;;;;30.10;99.40;;;29.69;33.78;100411.59;5095006;28;19928;-65
2021/07/10 08:49:15;;;;;;;;;;;30.30;99.10;;;29.85;34.00;100416.50;5094773;28;20397;-64
2021/07/10 08:51:45;;;;;;;;;;;30.30;99.40;;;29.86;32.57;100407.69;5095006;28;19927;-63
2021/07/10 08:54:13;;;;;;;;;;;30.40;98.60;;;29.66;33.70;100404.91;5094649;28;20097;-65
2021/07/10 08:56:41;;;;;;;;;;;30.20;98.90;;;29.77;33.22;100410.22;5095003;28;19924;-65
2021/07/10 08:59:09;;;;;;;;;;;30.30;98.60;;;29.93;33.18;100421.47;5094339;28;19924;-66
2021/07/10 09:01:38;;;;;;;;;;;30.40;98.70;;;30.37;33.32;100413.75;5094770;28;20023;-64
2021/07/10 09:04:06;;;;;;;;;;;30.70;99.10;;;30.34;32.51;100410.56;5094589;28;19932;-63
2021/07/10 09:06:36;;;;;;;;;;;30.90;98.20;;;30.10;33.31;100400.78;5094706;28;20031;-64
2021/07/10 09:09:07;;;;;;;;;;;30.70;98.70;;;30.24;33.14;100383.72;5094464;28;20378;-65
2021/07/10 09:11:34;;;;;;;;;;;30.80;98.80;;;30.39;33.54;100381.41;5094710;28;19924;-64
2021/07/10 09:14:02;;;;;;;;;;;30.80;98.70;;;30.37;33.81;100381.03;5094109;28;19928;-65
2021/07/10 09:16:31;;;;;;;;;;;30.90;98.90;;;30.56;32.96;100384.97;5094760;28;19924;-66
2021/07/10 09:19:00;;;;;;;;;;;31.00;98.50;;;30.94;31.75;100383.25;5093604;28;19925;-65
2021/07/10 09:21:39;;;;;;;;;;;31.30;98.20;;;30.80;31.92;100386.38;5093881;28;20362;-64
2021/07/10 09:24:08;;;;;;;;;;;31.30;98.10;;;30.91;31.69;100391.69;5093889;28;19924;-64
2021/07/10 09:26:41;;;;;;;;;;;31.40;97.70;;;30.70;32.23;100398.59;5094557;28;20266;-64
2021/07/10 09:29:10;;;;;;;;;;;31.20;98.00;;;30.77;32.11;100399.19;5093993;28;19928;-64
2021/07/10 09:31:40;;;;;;;;;;;31.30;97.90;;;30.84;32.36;100401.03;5094259;28;20369;-64
2021/07/10 09:34:10;;;;;;;;;;;31.30;98.00;;;31.32;31.63;100377.81;5093975;28;20296;-65
2021/07/10 09:36:51;;;;;;;;;;;31.60;98.00;;;31.71;30.92;100385.09;5094180;28;20442;-65
2021/07/10 09:39:19;;;;;;;;;;;32.10;97.40;;;31.49;30.86;100384.19;5093859;28;20422;-64
2021/07/10 09:41:47;;;;;;;;;;;32.00;97.10;;;31.48;31.20;100380.56;5093874;28;19931;-65
2021/07/10 09:44:16;;;;;;;;;;;32.00;97.30;;;31.65;31.12;100386.88;5093891;28;19977;-64
2021/07/10 09:46:45;;;;;;;;;;;32.10;97.50;;;32.11;31.57;100397.50;5093970;28;20274;-64
2021/07/10 09:49:24;;;;;;;;;;;32.40;98.10;;;32.44;29.76;100409.25;5093473;28;19928;-64
2021/07/10 09:52:17;;;;;;;;;;;32.80;96.60;;;32.35;30.22;100409.13;5093744;28;19928;-64
2021/07/10 09:54:46;;;;;;;;;;;32.80;96.60;;;32.49;30.09;100400.31;5093740;28;19924;-64
2021/07/10 09:57:18;;;;;;;;;;;32.90;96.60;;;32.68;30.04;100390.13;5093499;28;19962;-64
2021/07/10 09:59:51;;;;;;;;;;;33.10;96.60;;;32.79;29.30;100388.53;5093697;28;19924;-64
2021/07/10 10:02:23;;;;;;;;;;;33.30;96.00;;;32.86;29.98;100396.66;5093199;28;19938;-64
2021/07/10 10:04:51;;;;;;;;;;;33.30;96.30;;;33.18;28.63;100395.59;5093765;28;20277;-64
2021/07/10 10:07:22;;;;;;;;;;;33.60;95.50;;;33.28;28.72;100402.84;5093444;28;19924;-64
2021/07/10 10:09:57;;;;;;;;;;;33.70;95.60;;;33.57;28.61;100394.16;5093452;28;19924;-63
2021/07/10 10:12:25;;;;;;;;;;;33.90;96.00;;;33.68;28.15;100405.03;5093058;28;20377;-64
2021/07/10 10:14:54;;;;;;;;;;;34.10;95.10;;;33.50;27.59;100395.22;5093405;28;20442;-64
2021/07/10 10:17:23;;;;;;;;;;;34.00;94.90;;;33.33;28.69;100387.47;5093186;28;20362;-64
2021/07/10 10:19:51;;;;;;;;;;;33.90;95.20;;;33.59;27.65;100388.94;5093200;28;19924;-65
2021/07/10 10:22:20;;;;;;;;;;;34.00;94.70;;;33.98;28.11;100398.66;5092684;28;19924;-64
2021/07/10 10:24:51;;;;;;;;;;;34.30;95.10;;;34.43;27.69;100387.66;5093228;28;19939;-64
2021/07/10 10:27:20;;;;;;;;;;;34.70;95.00;;;34.69;26.25;100382.56;5093165;28;19928;-65
2021/07/10 10:29:51;;;;;;;;;;;35.10;94.10;;;34.75;27.46;100383.53;5092938;28;19931;-64
2021/07/10 10:32:19;;;;;;;;;;;35.20;94.40;;;35.04;26.54;100388.72;5092384;28;19931;-63
2021/07/10 10:34:50;;;;;;;;;;;35.30;93.70;;;35.00;27.53;100396.50;5093222;28;20336;-64
2021/07/10 10:37:19;;;;;;;;;;;35.40;94.40;;;35.20;27.14;100385.63;5092812;28;20019;-64
2021/07/10 10:39:47;;;;;;;;;;;35.60;94.00;;;35.15;30.79;100399.50;5092707;28;19928;-66
2021/07/10 10:42:20;;;;;;;;;;;35.60;96.30;;;34.93;30.58;100388.41;5092714;28;19953;-65
2021/07/10 10:44:51;;;;;;;;;;;35.60;96.20;;;34.54;30.67;100379.56;5093164;28;19923;-65
2021/07/10 10:47:23;;;;;;;;;;;35.20;96.20;;;34.49;31.30;100377.38;5092636;28;19985;-65
2021/07/10 10:49:52;;;;;;;;;;;35.00;96.50;;;34.84;31.35;100380.72;5092650;28;19928;-65
2021/07/10 10:52:37;;;;;;;;;;;35.30;96.90;;;35.04;31.04;100374.66;5092343;28;19969;-64
2021/07/10 10:55:08;;;;;;;;;;;35.50;96.70;;;35.15;30.73;100377.81;5092821;28;19928;-66
2021/07/10 10:57:39;;;;;;;;;;;35.70;96.60;;;34.68;30.72;100366.22;5092598;28;19977;-65
2021/07/10 11:00:13;;;;;;;;;;;35.40;96.00;;;34.29;30.93;100362.94;5092677;28;19928;-65
2021/07/10 11:02:52;;;;;;;;;;;35.10;96.20;;;34.00;30.58;100354.88;5092329;28;19931;-66
2021/07/10 11:05:53;;;;;;;;;;;34.80;95.80;;;33.82;31.55;100357.59;5092959;28;19924;-65
2021/07/10 11:08:38;;;;;;;;;;;34.50;96.30;;;33.66;30.63;100346.59;5092337;28;20400;-65
2021/07/10 11:11:22;;;;;;;;;;;34.30;96.10;;;33.36;31.84;100331.28;5091224;28;19964;-65
2021/07/10 11:14:14;;;;;;;;;;;34.00;96.50;;;33.37;32.39;100346.88;5092199;28;19947;-64
2021/07/10 11:17:07;;;;;;;;;;;33.90;97.00;;;33.54;31.89;100358.63;5077618;28;19958;-65
2021/07/10 11:19:53;;;;;;;;;;;34.00;96.90;;;33.58;31.83;100353.69;5092311;28;20255;-66